createdAt,value
2023-02-27T00:00:41.194Z,72.03
2023-02-27T00:01:41.151Z,71.92
2023-02-27T00:02:41.152Z,71.92
2023-02-27T00:03:41.156Z,72.03
2023-02-27T00:04:41.124Z,71.71
2023-02-27T00:05:41.106Z,71.92
2023-02-27T00:06:41.117Z,71.81
2023-02-27T00:07:41.090Z,72.13
2023-02-27T00:08:41.122Z,71.92
2023-02-27T00:09:41.062Z,71.92
2023-02-27T00:10:41.058Z,71.92
2023-02-27T00:11:41.052Z,71.92
2023-02-27T00:12:41.040Z,71.92
2023-02-27T00:13:41.016Z,71.92
2023-02-27T00:14:41.003Z,72.03
2023-02-27T00:15:41.153Z,72.03
2023-02-27T00:16:41.098Z,72.24
2023-02-27T00:17:40.969Z,72.34
2023-02-27T00:18:40.947Z,72.13
2023-02-27T00:19:40.935Z,72.24
2023-02-27T00:20:40.951Z,72.45
2023-02-27T00:21:40.920Z,72.24
2023-02-27T00:22:40.896Z,71.92
2023-02-27T00:23:40.883Z,71.81
2023-02-27T00:24:40.879Z,72.13
2023-02-27T00:25:40.856Z,72.24
2023-02-27T00:26:41.121Z,72.34
2023-02-27T00:27:40.830Z,72.55
2023-02-27T00:28:40.822Z,72.55
2023-02-27T00:29:40.812Z,72.34
2023-02-27T00:30:40.839Z,72.03
2023-02-27T00:31:40.890Z,71.81
2023-02-27T00:32:40.775Z,71.81
2023-02-27T00:33:40.764Z,71.92
2023-02-27T00:34:40.751Z,72.34
2023-02-27T00:35:40.728Z,72.24
2023-02-27T00:36:40.752Z,72.34
2023-02-27T00:37:40.710Z,72.34
2023-02-27T00:38:40.705Z,72.24
2023-02-27T00:39:40.689Z,72.03
2023-02-27T00:40:40.687Z,72.13
2023-02-27T00:41:40.680Z,72.24
2023-02-27T00:42:40.646Z,72.45
2023-02-27T00:43:40.635Z,72.24
2023-02-27T00:44:40.645Z,72.24
2023-02-27T00:45:40.607Z,72.34
2023-02-27T00:46:40.690Z,72.55
2023-02-27T00:47:40.584Z,72.55
2023-02-27T00:48:40.581Z,72.48
2023-02-27T00:49:40.565Z,72.45
2023-02-27T00:50:40.544Z,72.76
2023-02-27T00:51:40.559Z,72.66
2023-02-27T00:52:40.532Z,72.69
2023-02-27T00:53:40.505Z,72.80
2023-02-27T00:54:40.509Z,73.22
2023-02-27T00:55:40.481Z,73.11
2023-02-27T00:56:40.501Z,73.11
2023-02-27T00:57:40.618Z,73.22
2023-02-27T00:58:40.448Z,73.11
2023-02-27T00:59:40.438Z,73.53
2023-02-27T01:00:40.450Z,73.32
2023-02-27T01:01:40.430Z,73.22
2023-02-27T01:02:40.440Z,73.32
2023-02-27T01:03:40.384Z,73.11
2023-02-27T01:04:40.376Z,73.22
2023-02-27T01:05:40.364Z,73.22
2023-02-27T01:06:40.381Z,73.22
2023-02-27T01:07:40.338Z,73.32
2023-02-27T01:08:40.330Z,73.53
2023-02-27T01:09:40.326Z,73.11
2023-02-27T01:10:40.312Z,73.00
2023-02-27T01:11:40.290Z,73.11
2023-02-27T01:12:40.310Z,73.11
2023-02-27T01:13:40.271Z,73.32
2023-02-27T01:14:40.260Z,73.11
2023-02-27T01:15:40.246Z,73.00
2023-02-27T01:16:40.350Z,73.22
2023-02-27T01:17:40.241Z,73.00
2023-02-27T01:18:40.212Z,73.11
2023-02-27T01:19:40.190Z,73.00
2023-02-27T01:20:40.189Z,73.22
2023-02-27T01:21:40.175Z,73.53
2023-02-27T01:22:40.186Z,73.99
2023-02-27T01:23:40.144Z,73.99
2023-02-27T01:24:40.136Z,73.88
2023-02-27T01:25:40.130Z,73.85
2023-02-27T01:26:40.114Z,73.88
2023-02-27T01:27:40.127Z,73.99
2023-02-27T01:28:40.090Z,73.77
2023-02-27T01:29:40.073Z,74.09
2023-02-27T01:30:40.072Z,74.19
2023-02-27T01:31:40.090Z,74.40
2023-02-27T01:32:40.096Z,74.40
2023-02-27T01:33:40.024Z,74.19
2023-02-27T01:34:40.042Z,74.30
2023-02-27T01:35:40.001Z,74.19
2023-02-27T01:36:40.003Z,73.88
2023-02-27T01:37:40.008Z,73.88
2023-02-27T01:38:39.966Z,73.85
2023-02-27T01:39:39.952Z,73.74
2023-02-27T01:40:39.938Z,73.67
2023-02-27T01:41:39.941Z,73.99
2023-02-27T01:42:39.935Z,73.88
2023-02-27T01:43:39.900Z,73.88
2023-02-27T01:44:39.892Z,74.09
2023-02-27T01:45:39.977Z,74.19
2023-02-27T01:46:39.886Z,74.40
2023-02-27T01:47:39.851Z,74.09
2023-02-27T01:48:39.852Z,74.30
2023-02-27T01:49:39.824Z,74.19
2023-02-27T01:50:39.868Z,74.30
2023-02-27T01:51:39.825Z,74.62
2023-02-27T01:52:39.834Z,74.51
2023-02-27T01:53:39.784Z,74.19
2023-02-27T01:54:39.771Z,74.51
2023-02-27T01:55:39.768Z,74.40
2023-02-27T01:56:39.743Z,74.40
2023-02-27T01:57:39.752Z,74.62
2023-02-27T01:58:39.720Z,74.82
2023-02-27T01:59:39.700Z,74.72
2023-02-27T02:00:39.700Z,74.82
2023-02-27T02:01:39.689Z,74.82
2023-02-27T02:02:39.718Z,75.04
2023-02-27T02:03:39.655Z,74.93
2023-02-27T02:04:39.644Z,74.82
2023-02-27T02:05:39.627Z,74.93
2023-02-27T02:06:39.622Z,74.82
2023-02-27T02:07:39.633Z,75.14
2023-02-27T02:08:39.626Z,75.14
2023-02-27T02:09:39.581Z,75.04
2023-02-27T02:10:39.579Z,75.28
2023-02-27T02:11:39.566Z,75.04
2023-02-27T02:12:39.549Z,74.82
2023-02-27T02:13:39.551Z,75.14
2023-02-27T02:14:39.521Z,75.14
2023-02-27T02:15:39.506Z,75.24
2023-02-27T02:16:39.540Z,75.35
2023-02-27T02:17:39.483Z,75.24
2023-02-27T02:18:39.499Z,75.14
2023-02-27T02:19:39.460Z,75.17
2023-02-27T02:20:39.448Z,75.24
2023-02-27T02:21:39.438Z,75.59
2023-02-27T02:22:39.424Z,75.59
2023-02-27T02:23:39.430Z,75.38
2023-02-27T02:24:39.406Z,75.49
2023-02-27T02:25:39.379Z,75.24
2023-02-27T02:26:39.379Z,75.38
2023-02-27T02:27:39.381Z,75.28
2023-02-27T02:28:39.380Z,75.38
2023-02-27T02:29:39.344Z,75.35
2023-02-27T02:30:39.424Z,75.59
2023-02-27T02:31:39.483Z,75.59
2023-02-27T02:32:39.302Z,75.49
2023-02-27T02:33:39.303Z,75.38
2023-02-27T02:34:39.281Z,75.24
2023-02-27T02:35:39.265Z,75.28
2023-02-27T02:36:39.254Z,75.49
2023-02-27T02:37:39.233Z,75.59
2023-02-27T02:38:39.247Z,76.01
2023-02-27T02:39:39.207Z,75.91
2023-02-27T02:40:39.213Z,75.91
2023-02-27T02:41:39.190Z,75.59
2023-02-27T02:42:39.177Z,75.59
2023-02-27T02:43:39.189Z,75.81
2023-02-27T02:44:39.153Z,75.70
2023-02-27T02:45:39.154Z,75.70
2023-02-27T02:46:39.132Z,75.91
2023-02-27T02:47:39.114Z,75.91
2023-02-27T02:48:39.178Z,76.01
2023-02-27T02:49:39.095Z,75.91
2023-02-27T02:50:39.086Z,75.59
2023-02-27T02:51:39.079Z,75.81
2023-02-27T02:52:39.054Z,75.91
2023-02-27T02:53:39.060Z,76.01
2023-02-27T02:54:39.037Z,76.01
2023-02-27T02:55:39.019Z,76.12
2023-02-27T02:56:39.009Z,76.12
2023-02-27T02:57:38.990Z,75.81
2023-02-27T02:58:38.985Z,75.56
2023-02-27T02:59:38.998Z,75.49
2023-02-27T03:00:38.963Z,75.70
2023-02-27T03:01:39.037Z,75.59
2023-02-27T03:02:38.934Z,75.91
2023-02-27T03:03:38.919Z,75.70
2023-02-27T03:04:38.999Z,75.59
2023-02-27T03:05:38.895Z,76.01
2023-02-27T03:06:38.897Z,75.81
2023-02-27T03:07:38.937Z,75.91
2023-02-27T03:08:38.861Z,76.23
2023-02-27T03:09:38.876Z,76.37
2023-02-27T03:10:38.835Z,76.47
2023-02-27T03:11:38.822Z,76.47
2023-02-27T03:12:38.822Z,76.47
2023-02-27T03:13:38.803Z,76.47
2023-02-27T03:14:38.801Z,76.79
2023-02-27T03:15:38.804Z,76.68
2023-02-27T03:16:38.757Z,76.68
2023-02-27T03:17:38.753Z,76.57
2023-02-27T03:18:38.731Z,76.47
2023-02-27T03:19:38.740Z,76.33
2023-02-27T03:20:38.710Z,76.47
2023-02-27T03:21:38.707Z,76.47
2023-02-27T03:22:38.681Z,76.12
2023-02-27T03:23:38.678Z,76.47
2023-02-27T03:24:38.679Z,76.57
2023-02-27T03:25:38.653Z,76.37
2023-02-27T03:26:38.639Z,76.47
2023-02-27T03:27:45.133Z,76.57
2023-02-27T03:28:38.605Z,76.47
2023-02-27T03:29:38.621Z,76.47
2023-02-27T03:30:38.592Z,76.47
2023-02-27T03:31:38.662Z,76.26
2023-02-27T03:32:38.557Z,76.57
2023-02-27T03:33:38.549Z,76.57
2023-02-27T03:34:38.563Z,76.89
2023-02-27T03:35:38.528Z,76.89
2023-02-27T03:36:38.515Z,76.89
2023-02-27T03:37:38.505Z,76.89
2023-02-27T03:38:38.481Z,77.21
2023-02-27T03:39:38.489Z,77.00
2023-02-27T03:40:38.480Z,77.00
2023-02-27T03:41:38.455Z,77.00
2023-02-27T03:42:38.439Z,76.89
2023-02-27T03:43:38.422Z,77.00
2023-02-27T03:44:38.406Z,77.00
2023-02-27T03:45:38.453Z,77.00
2023-02-27T03:46:38.480Z,77.31
2023-02-27T03:47:38.370Z,77.42
2023-02-27T03:48:38.356Z,77.31
2023-02-27T03:49:38.353Z,77.52
2023-02-27T03:50:38.351Z,77.42
2023-02-27T03:51:38.324Z,77.31
2023-02-27T03:52:38.310Z,77.31
2023-02-27T03:53:38.299Z,77.21
2023-02-27T03:54:38.288Z,77.21
2023-02-27T03:55:38.306Z,77.10
2023-02-27T03:56:38.260Z,77.10
2023-02-27T03:57:38.259Z,77.10
2023-02-27T03:58:38.232Z,77.21
2023-02-27T03:59:38.234Z,76.89
2023-02-27T04:00:38.248Z,76.89
2023-02-27T04:01:38.244Z,76.79
2023-02-27T04:02:38.213Z,77.21
2023-02-27T04:03:38.200Z,77.31
2023-02-27T04:04:38.165Z,77.42
2023-02-27T04:05:38.160Z,77.31
2023-02-27T04:06:38.143Z,77.10
2023-02-27T04:07:38.143Z,77.31
2023-02-27T04:08:38.178Z,77.31
2023-02-27T04:09:38.107Z,77.10
2023-02-27T04:10:38.116Z,77.31
2023-02-27T04:11:38.090Z,77.00
2023-02-27T04:12:38.064Z,77.10
2023-02-27T04:13:38.062Z,77.10
2023-02-27T04:14:38.046Z,77.00
2023-02-27T04:15:38.046Z,77.00
2023-02-27T04:16:38.022Z,77.21
2023-02-27T04:17:38.011Z,77.31
2023-02-27T04:18:37.989Z,77.10
2023-02-27T04:19:37.993Z,77.10
2023-02-27T04:20:37.982Z,77.31
2023-02-27T04:21:37.973Z,77.31
2023-02-27T04:22:37.949Z,77.42
2023-02-27T04:23:37.986Z,77.00
2023-02-27T04:24:37.898Z,77.31
2023-02-27T04:25:37.909Z,77.10
2023-02-27T04:26:37.895Z,77.21
2023-02-27T04:27:37.893Z,77.42
2023-02-27T04:28:37.894Z,77.31
2023-02-27T04:29:37.869Z,77.00
2023-02-27T04:30:37.855Z,77.31
2023-02-27T04:31:37.911Z,77.31
2023-02-27T04:32:37.963Z,77.42
2023-02-27T04:33:37.856Z,77.21
2023-02-27T04:34:37.814Z,76.89
2023-02-27T04:35:37.782Z,77.10
2023-02-27T04:36:37.790Z,77.10
2023-02-27T04:37:37.764Z,77.31
2023-02-27T04:38:37.784Z,77.45
2023-02-27T04:39:37.742Z,77.52
2023-02-27T04:40:37.727Z,77.52
2023-02-27T04:41:37.791Z,77.42
2023-02-27T04:42:37.690Z,77.42
2023-02-27T04:43:37.713Z,77.45
2023-02-27T04:44:37.676Z,77.56
2023-02-27T04:45:37.690Z,77.56
2023-02-27T04:46:37.655Z,77.35
2023-02-27T04:47:37.654Z,77.35
2023-02-27T04:48:37.658Z,77.00
2023-02-27T04:49:37.646Z,77.31
2023-02-27T04:50:37.601Z,77.35
2023-02-27T04:51:37.600Z,77.24
2023-02-27T04:52:37.595Z,77.14
2023-02-27T04:53:37.589Z,77.14
2023-02-27T04:54:37.559Z,77.24
2023-02-27T04:55:37.552Z,77.24
2023-02-27T04:56:37.534Z,77.24
2023-02-27T04:57:37.520Z,77.21
2023-02-27T04:58:37.534Z,77.24
2023-02-27T04:59:37.498Z,77.24
2023-02-27T05:00:37.483Z,77.24
2023-02-27T05:01:37.504Z,77.35
2023-02-27T05:02:37.574Z,77.14
2023-02-27T05:03:37.460Z,77.03
2023-02-27T05:04:37.454Z,77.14
2023-02-27T05:05:37.422Z,77.24
2023-02-27T05:06:37.423Z,77.00
2023-02-27T05:07:37.402Z,77.14
2023-02-27T05:08:37.384Z,77.24
2023-02-27T05:09:37.384Z,77.24
2023-02-27T05:10:37.358Z,77.00
2023-02-27T05:11:37.373Z,76.93
2023-02-27T05:12:37.346Z,77.03
2023-02-27T05:13:37.324Z,76.89
2023-02-27T05:14:37.307Z,77.03
2023-02-27T05:15:37.318Z,77.00
2023-02-27T05:16:37.338Z,77.10
2023-02-27T05:17:37.316Z,77.14
2023-02-27T05:18:37.254Z,77.24
2023-02-27T05:19:37.256Z,77.24
2023-02-27T05:20:37.230Z,77.14
2023-02-27T05:21:37.236Z,77.14
2023-02-27T05:22:37.242Z,77.14
2023-02-27T05:23:37.192Z,77.03
2023-02-27T05:24:37.182Z,77.35
2023-02-27T05:25:37.183Z,77.24
2023-02-27T05:26:37.161Z,77.00
2023-02-27T05:27:37.212Z,77.14
2023-02-27T05:28:37.129Z,77.35
2023-02-27T05:29:37.129Z,77.24
2023-02-27T05:30:37.120Z,77.14
2023-02-27T05:31:37.130Z,77.14
2023-02-27T05:32:37.192Z,77.35
2023-02-27T05:33:37.103Z,77.45
2023-02-27T05:34:37.081Z,77.35
2023-02-27T05:35:37.121Z,77.56
2023-02-27T05:36:37.043Z,77.76
2023-02-27T05:37:37.031Z,77.87
2023-02-27T05:38:37.011Z,77.80
2023-02-27T05:39:37.032Z,77.98
2023-02-27T05:40:36.984Z,77.91
2023-02-27T05:41:37.566Z,77.98
2023-02-27T05:42:38.504Z,77.87
2023-02-27T05:43:38.173Z,77.66
2023-02-27T05:44:37.634Z,77.66
2023-02-27T05:45:37.317Z,77.66
2023-02-27T05:46:37.516Z,77.59
2023-02-27T05:47:36.987Z,77.56
2023-02-27T05:48:40.220Z,77.45
2023-02-27T05:49:36.949Z,77.45
2023-02-27T05:50:37.576Z,77.66
2023-02-27T05:51:39.144Z,77.70
2023-02-27T05:52:42.089Z,77.80
2023-02-27T05:53:39.137Z,77.56
2023-02-27T05:54:40.570Z,77.70
2023-02-27T05:55:36.797Z,77.80
2023-02-27T05:56:38.842Z,77.66
2023-02-27T05:57:37.640Z,77.56
2023-02-27T05:58:40.441Z,77.59
2023-02-27T05:59:36.728Z,77.70
2023-02-27T06:00:36.715Z,77.91
2023-02-27T06:01:38.932Z,78.02
2023-02-27T06:02:37.658Z,77.91
2023-02-27T06:03:41.894Z,77.91
2023-02-27T06:04:37.626Z,77.91
2023-02-27T06:05:38.117Z,77.59
2023-02-27T06:06:39.561Z,77.70
2023-02-27T06:07:38.632Z,77.91
2023-02-27T06:08:43.008Z,77.91
2023-02-27T06:09:41.717Z,77.70
2023-02-27T06:10:40.115Z,77.76
2023-02-27T06:11:40.949Z,77.38
2023-02-27T06:12:40.169Z,77.59
2023-02-27T06:13:37.117Z,77.91
2023-02-27T06:14:36.608Z,78.02
2023-02-27T06:15:36.823Z,78.12
2023-02-27T06:16:38.273Z,78.02
2023-02-27T06:17:36.537Z,77.91
2023-02-27T06:18:37.418Z,77.91
2023-02-27T06:19:36.511Z,77.66
2023-02-27T06:20:36.624Z,77.91
2023-02-27T06:21:42.441Z,77.80
2023-02-27T06:22:36.419Z,77.66
2023-02-27T06:23:36.421Z,77.49
2023-02-27T06:24:36.400Z,77.70
2023-02-27T06:25:36.448Z,77.91
2023-02-27T06:26:36.376Z,78.12
2023-02-27T06:27:36.372Z,78.02
2023-02-27T06:28:36.373Z,78.22
2023-02-27T06:29:36.352Z,78.22
2023-02-27T06:30:36.409Z,77.91
2023-02-27T06:31:36.319Z,77.70
2023-02-27T06:32:36.296Z,77.45
2023-02-27T06:33:36.285Z,77.66
2023-02-27T06:34:36.278Z,77.56
2023-02-27T06:35:36.315Z,77.45
2023-02-27T06:36:36.252Z,77.45
2023-02-27T06:37:36.239Z,77.35
2023-02-27T06:38:36.221Z,77.70
2023-02-27T06:39:36.207Z,77.56
2023-02-27T06:40:36.216Z,77.66
2023-02-27T06:41:36.199Z,77.56
2023-02-27T06:42:36.184Z,77.35
2023-02-27T06:43:36.168Z,77.03
2023-02-27T06:44:36.155Z,77.35
2023-02-27T06:45:36.139Z,77.35
2023-02-27T06:46:36.147Z,77.24
2023-02-27T06:47:36.113Z,77.14
2023-02-27T06:48:36.104Z,77.35
2023-02-27T06:49:36.113Z,77.45
2023-02-27T06:50:36.083Z,77.03
2023-02-27T06:51:36.062Z,77.14
2023-02-27T06:52:36.046Z,77.35
2023-02-27T06:53:36.036Z,77.03
2023-02-27T06:54:36.041Z,76.68
2023-02-27T06:55:36.025Z,76.57
2023-02-27T06:56:35.996Z,76.47
2023-02-27T06:57:35.986Z,76.37
2023-02-27T06:58:35.970Z,76.26
2023-02-27T06:59:35.982Z,76.26
2023-02-27T07:00:35.959Z,76.15
2023-02-27T07:01:35.969Z,76.26
2023-02-27T07:02:35.967Z,76.26
2023-02-27T07:03:35.923Z,76.57
2023-02-27T07:04:35.965Z,76.37
2023-02-27T07:05:35.894Z,76.37
2023-02-27T07:07:32.240Z,76.15
2023-02-27T07:07:41.116Z,76.05
2023-02-27T07:08:35.877Z,76.12
2023-02-27T07:09:35.974Z,76.01
2023-02-27T07:10:35.826Z,76.26
2023-02-27T07:11:35.817Z,75.91
2023-02-27T07:12:35.823Z,75.81
2023-02-27T07:13:35.793Z,76.01
2023-02-27T07:14:36.003Z,75.81
2023-02-27T07:15:35.803Z,76.12
2023-02-27T07:16:35.737Z,76.01
2023-02-27T07:17:35.753Z,75.70
2023-02-27T07:18:35.751Z,75.70
2023-02-27T07:19:35.725Z,75.81
2023-02-27T07:20:35.721Z,75.70
2023-02-27T07:21:35.723Z,75.67
2023-02-27T07:22:35.681Z,75.59
2023-02-27T07:23:35.670Z,75.35
2023-02-27T07:24:35.677Z,75.04
2023-02-27T07:25:35.663Z,75.24
2023-02-27T07:26:35.634Z,75.24
2023-02-27T07:27:35.615Z,75.04
2023-02-27T07:28:35.628Z,75.14
2023-02-27T07:29:35.595Z,75.04
2023-02-27T07:30:35.707Z,74.93
2023-02-27T07:31:35.653Z,75.14
2023-02-27T07:32:35.565Z,74.82
2023-02-27T07:33:35.546Z,74.62
2023-02-27T07:34:35.532Z,74.40
2023-02-27T07:35:35.569Z,74.51
2023-02-27T07:36:35.538Z,74.62
2023-02-27T07:37:35.502Z,74.62
2023-02-27T07:38:35.494Z,74.37
2023-02-27T07:39:35.475Z,74.16
2023-02-27T07:40:35.558Z,74.37
2023-02-27T07:41:35.470Z,74.16
2023-02-27T07:42:35.456Z,73.95
2023-02-27T07:43:35.425Z,73.85
2023-02-27T07:44:35.423Z,74.05
2023-02-27T07:45:35.411Z,73.63
2023-02-27T07:46:35.452Z,73.53
2023-02-27T07:47:35.392Z,73.28
2023-02-27T07:48:35.373Z,73.39
2023-02-27T07:49:35.375Z,73.39
2023-02-27T07:50:35.352Z,73.08
2023-02-27T07:51:35.343Z,72.76
2023-02-27T07:52:35.349Z,72.86
2023-02-27T07:53:35.301Z,72.34
2023-02-27T07:54:35.776Z,72.34
2023-02-27T07:55:35.281Z,72.45
2023-02-27T07:56:35.291Z,72.20
2023-02-27T07:57:35.257Z,72.20
2023-02-27T07:58:35.253Z,72.20
2023-02-27T07:59:35.227Z,72.10
2023-02-27T08:00:35.220Z,71.89
2023-02-27T08:01:35.234Z,71.99
2023-02-27T08:02:35.226Z,71.36
2023-02-27T08:03:35.180Z,71.05
2023-02-27T08:04:35.271Z,70.91
2023-02-27T08:05:35.160Z,71.12
2023-02-27T08:06:35.186Z,70.70
2023-02-27T08:07:35.138Z,70.28
2023-02-27T08:08:35.127Z,70.70
2023-02-27T08:09:35.101Z,70.39
2023-02-27T08:10:35.099Z,70.18
2023-02-27T08:11:35.101Z,70.15
2023-02-27T08:12:35.090Z,70.15
2023-02-27T08:14:34.053Z,69.62
2023-02-27T08:15:35.031Z,69.20
2023-02-27T08:16:35.127Z,68.99
2023-02-27T08:17:35.018Z,68.68
2023-02-27T08:18:35.110Z,68.78
2023-02-27T08:19:34.979Z,68.75
2023-02-27T08:20:34.977Z,68.85
2023-02-27T08:21:34.981Z,68.23
2023-02-27T08:22:34.947Z,67.84
2023-02-27T08:23:34.937Z,67.91
2023-02-27T08:24:34.931Z,67.91
2023-02-27T08:25:34.908Z,67.49
2023-02-27T08:26:34.944Z,67.18
2023-02-27T08:27:34.884Z,66.76
2023-02-27T08:28:34.886Z,67.29
2023-02-27T08:29:34.870Z,67.57
2023-02-27T08:30:34.849Z,67.78
2023-02-27T08:31:34.887Z,67.05
2023-02-27T08:32:34.892Z,66.52
2023-02-27T08:33:34.846Z,66.42
2023-02-27T08:34:34.799Z,66.10
2023-02-27T08:35:34.793Z,66.10
2023-02-27T08:36:34.797Z,66.39
2023-02-27T08:37:34.774Z,66.49
2023-02-27T08:38:34.761Z,65.97
2023-02-27T08:39:34.748Z,65.76
2023-02-27T08:40:34.719Z,65.44
2023-02-27T08:41:34.722Z,66.14
2023-02-27T08:42:34.715Z,65.41
2023-02-27T08:43:34.678Z,65.31
2023-02-27T08:44:34.692Z,65.31
2023-02-27T08:45:34.687Z,65.52
2023-02-27T08:46:34.660Z,64.89
2023-02-27T08:47:34.639Z,64.58
2023-02-27T08:48:34.625Z,63.95
2023-02-27T08:49:34.609Z,63.92
2023-02-27T08:50:34.600Z,64.23
2023-02-27T08:51:34.626Z,64.76
2023-02-27T08:52:34.579Z,64.23
2023-02-27T08:53:34.559Z,63.92
2023-02-27T08:54:34.545Z,63.92
2023-02-27T08:55:34.544Z,63.71
2023-02-27T08:56:34.552Z,63.79
2023-02-27T08:57:34.531Z,63.16
2023-02-27T08:58:34.493Z,63.26
2023-02-27T08:59:34.473Z,63.16
2023-02-27T09:00:34.599Z,62.84
2023-02-27T09:01:34.687Z,63.47
2023-02-27T09:02:34.484Z,63.23
2023-02-27T09:03:34.441Z,63.76
2023-02-27T09:04:34.418Z,62.92
2023-02-27T09:05:34.420Z,62.50
2023-02-27T09:06:34.402Z,61.56
2023-02-27T09:07:34.444Z,62.08
2023-02-27T09:08:34.377Z,62.71
2023-02-27T09:09:34.354Z,62.40
2023-02-27T09:10:34.385Z,62.40
2023-02-27T09:11:34.335Z,62.40
2023-02-27T09:12:34.362Z,62.58
2023-02-27T09:13:34.322Z,62.89
2023-02-27T09:14:34.300Z,62.68
2023-02-27T09:15:34.282Z,62.34
2023-02-27T09:16:34.347Z,61.54
2023-02-27T09:17:34.301Z,61.01
2023-02-27T09:18:34.245Z,61.43
2023-02-27T09:19:34.234Z,61.43
2023-02-27T09:20:34.223Z,61.64
2023-02-27T09:21:34.208Z,62.02
2023-02-27T09:22:34.298Z,61.82
2023-02-27T09:23:34.187Z,61.61
2023-02-27T09:24:34.179Z,61.40
2023-02-27T09:25:34.158Z,61.40
2023-02-27T09:26:43.619Z,60.57
2023-02-27T09:27:34.172Z,60.77
2023-02-27T09:28:34.121Z,60.67
2023-02-27T09:29:34.102Z,61.30
2023-02-27T09:30:34.102Z,60.57
2023-02-27T09:31:34.550Z,60.46
2023-02-27T09:32:34.264Z,60.57
2023-02-27T09:33:34.060Z,60.64
2023-02-27T09:34:34.054Z,60.02
2023-02-27T09:35:34.073Z,59.81
2023-02-27T09:36:34.048Z,60.02
2023-02-27T09:37:34.032Z,59.81
2023-02-27T09:38:33.998Z,60.53
2023-02-27T09:39:33.982Z,59.99
2023-02-27T09:40:33.982Z,59.67
2023-02-27T09:41:33.968Z,59.16
2023-02-27T09:42:33.963Z,59.57
2023-02-27T09:43:33.937Z,59.16
2023-02-27T09:44:45.566Z,58.42
2023-02-27T09:45:33.953Z,58.84
2023-02-27T09:46:33.904Z,58.73
2023-02-27T09:47:33.914Z,59.05
2023-02-27T09:48:33.878Z,58.84
2023-02-27T09:49:33.863Z,59.05
2023-02-27T09:50:34.048Z,58.40
2023-02-27T09:51:33.839Z,57.98
2023-02-27T09:52:33.849Z,58.08
2023-02-27T09:53:33.810Z,58.18
2023-02-27T09:54:33.799Z,59.00
2023-02-27T09:55:33.834Z,59.10
2023-02-27T09:56:33.775Z,59.10
2023-02-27T09:57:33.787Z,58.71
2023-02-27T09:58:33.746Z,58.06
2023-02-27T09:59:33.747Z,58.06
2023-02-27T10:00:33.730Z,58.26
2023-02-27T10:01:33.730Z,58.79
2023-02-27T10:02:33.750Z,57.64
2023-02-27T10:03:33.748Z,57.77
2023-02-27T10:04:33.692Z,58.16
2023-02-27T10:05:33.655Z,58.47
2023-02-27T10:06:33.653Z,57.22
2023-02-27T10:07:33.643Z,57.40
2023-02-27T10:08:33.645Z,57.82
2023-02-27T10:09:33.606Z,57.40
2023-02-27T10:10:33.602Z,56.88
2023-02-27T10:11:33.613Z,57.30
2023-02-27T10:12:33.578Z,57.30
2023-02-27T10:13:33.578Z,57.38
2023-02-27T10:14:33.550Z,58.08
2023-02-27T10:15:33.530Z,57.77
2023-02-27T10:16:33.564Z,56.10
2023-02-27T10:17:33.549Z,55.61
2023-02-27T10:18:33.517Z,55.51
2023-02-27T10:19:33.525Z,56.02
2023-02-27T10:20:33.478Z,55.19
2023-02-27T10:21:33.780Z,54.88
2023-02-27T10:22:33.457Z,55.01
2023-02-27T10:23:33.453Z,54.99
2023-02-27T10:24:33.418Z,54.57
2023-02-27T10:25:33.415Z,54.59
2023-02-27T10:26:33.399Z,54.59
2023-02-27T10:27:33.379Z,54.80
2023-02-27T10:28:33.388Z,55.32
2023-02-27T10:29:33.480Z,55.09
2023-02-27T10:30:34.967Z,55.19
2023-02-27T10:31:33.349Z,53.74
2023-02-27T10:32:33.317Z,54.33
2023-02-27T10:33:33.326Z,53.81
2023-02-27T10:34:33.299Z,53.19
2023-02-27T10:35:33.354Z,53.92
2023-02-27T10:36:34.778Z,54.02
2023-02-27T10:37:33.257Z,53.92
2023-02-27T10:38:33.265Z,54.44
2023-02-27T10:39:33.222Z,54.54
2023-02-27T10:40:33.207Z,53.81
2023-02-27T10:41:33.201Z,53.30
2023-02-27T10:42:33.194Z,53.92
2023-02-27T10:43:33.195Z,54.23
2023-02-27T10:44:33.245Z,53.61
2023-02-27T10:45:33.150Z,53.50
2023-02-27T10:46:33.200Z,53.50
2023-02-27T10:47:33.151Z,54.33
2023-02-27T10:48:33.159Z,54.83
2023-02-27T10:49:33.100Z,54.21
2023-02-27T10:50:33.094Z,53.27
2023-02-27T10:51:33.080Z,53.16
2023-02-27T10:52:33.061Z,53.69
2023-02-27T10:53:33.061Z,53.97
2023-02-27T10:54:33.032Z,54.39
2023-02-27T10:55:33.016Z,54.26
2023-02-27T10:56:33.022Z,53.95
2023-02-27T10:57:32.999Z,54.86
2023-02-27T10:58:34.670Z,54.94
2023-02-27T10:59:32.962Z,54.21
2023-02-27T11:00:32.956Z,54.00
2023-02-27T11:01:32.983Z,52.75
2023-02-27T11:02:32.937Z,52.67
2023-02-27T11:03:32.933Z,52.55
2023-02-27T11:04:32.981Z,52.88
2023-02-27T11:05:32.910Z,51.53
2023-02-27T11:06:32.882Z,51.74
2023-02-27T11:07:32.874Z,52.15
2023-02-27T11:08:32.878Z,52.44
2023-02-27T11:09:32.837Z,53.06
2023-02-27T11:10:32.830Z,53.17
2023-02-27T11:11:32.815Z,52.94
2023-02-27T11:12:32.803Z,51.38
2023-02-27T11:13:32.803Z,51.17
2023-02-27T11:14:32.788Z,51.90
2023-02-27T11:15:32.818Z,52.34
2023-02-27T11:16:32.766Z,53.25
2023-02-27T11:17:32.771Z,53.77
2023-02-27T11:18:32.730Z,53.77
2023-02-27T11:19:32.756Z,53.56
2023-02-27T11:20:32.715Z,53.46
2023-02-27T11:21:32.693Z,53.46
2023-02-27T11:22:32.680Z,53.75
2023-02-27T11:23:32.673Z,53.12
2023-02-27T11:24:32.687Z,52.31
2023-02-27T11:25:32.697Z,52.11
2023-02-27T11:26:32.632Z,52.40
2023-02-27T11:27:32.621Z,52.31
2023-02-27T11:28:32.599Z,52.52
2023-02-27T11:29:32.617Z,52.52
2023-02-27T11:30:32.586Z,53.33
2023-02-27T11:31:32.625Z,52.73
2023-02-27T11:32:32.553Z,53.36
2023-02-27T11:33:32.539Z,54.29
2023-02-27T11:34:32.565Z,52.62
2023-02-27T11:35:32.561Z,52.73
2023-02-27T11:36:32.504Z,52.94
2023-02-27T11:37:32.488Z,53.15
2023-02-27T11:38:32.476Z,52.31
2023-02-27T11:39:32.531Z,52.40
2023-02-27T11:40:32.444Z,52.11
2023-02-27T11:41:32.466Z,52.81
2023-02-27T11:42:32.426Z,52.83
2023-02-27T11:43:32.428Z,52.75
2023-02-27T11:44:49.657Z,53.77
2023-02-27T11:46:13.279Z,54.19
2023-02-27T11:46:50.879Z,53.77
2023-02-27T11:47:32.502Z,53.12
2023-02-27T11:48:32.352Z,53.04
2023-02-27T11:49:32.352Z,53.25
2023-02-27T11:50:32.343Z,52.62
2023-02-27T11:51:32.323Z,52.73
2023-02-27T11:52:32.306Z,52.44
2023-02-27T11:53:32.291Z,52.65
2023-02-27T11:54:32.285Z,52.31
2023-02-27T11:55:32.297Z,53.04
2023-02-27T11:56:33.371Z,52.52
2023-02-27T11:57:32.246Z,51.79
2023-02-27T11:58:32.222Z,52.42
2023-02-27T11:59:32.213Z,53.15
2023-02-27T12:00:32.215Z,53.12
2023-02-27T12:01:32.187Z,53.12
2023-02-27T12:02:32.194Z,52.50
2023-02-27T12:03:32.200Z,51.78
2023-02-27T12:04:32.147Z,52.50
2023-02-27T12:05:32.169Z,52.50
2023-02-27T12:06:32.123Z,52.19
2023-02-27T12:07:32.121Z,52.81
2023-02-27T12:08:32.103Z,53.33
2023-02-27T12:09:32.107Z,53.12
2023-02-27T12:10:32.421Z,52.71
2023-02-27T12:11:32.527Z,52.92
2023-02-27T12:12:32.040Z,53.44
2023-02-27T12:13:32.040Z,53.02
2023-02-27T12:14:32.031Z,52.71
2023-02-27T12:15:32.028Z,52.50
2023-02-27T12:16:33.271Z,52.40
2023-02-27T12:17:31.988Z,51.98
2023-02-27T12:18:31.975Z,51.78
2023-02-27T12:19:31.973Z,52.29
2023-02-27T12:20:31.956Z,52.29
2023-02-27T12:21:32.532Z,51.96
2023-02-27T12:22:37.917Z,51.65
2023-02-27T12:23:31.907Z,51.46
2023-02-27T12:24:31.888Z,51.88
2023-02-27T12:25:31.908Z,51.86
2023-02-27T12:26:31.875Z,52.17
2023-02-27T12:27:31.884Z,51.36
2023-02-27T12:28:31.877Z,51.05
2023-02-27T12:29:31.839Z,51.98
2023-02-27T12:30:31.843Z,51.98
2023-02-27T12:31:31.876Z,51.98
2023-02-27T12:32:31.853Z,53.10
2023-02-27T12:33:31.789Z,52.71
2023-02-27T12:34:31.779Z,52.92
2023-02-27T12:35:31.847Z,52.48
2023-02-27T12:36:31.735Z,52.58
2023-02-27T12:37:31.750Z,53.08
2023-02-27T12:38:32.443Z,52.56
2023-02-27T12:39:31.709Z,52.04
2023-02-27T12:40:31.711Z,52.25
2023-02-27T12:41:31.711Z,52.48
2023-02-27T12:42:32.541Z,52.50
2023-02-27T12:43:31.686Z,52.48
2023-02-27T12:44:31.657Z,51.46
2023-02-27T12:45:31.671Z,51.88
2023-02-27T12:46:31.639Z,53.20
2023-02-27T12:47:31.880Z,53.92
2023-02-27T12:48:31.587Z,53.08
2023-02-27T12:49:31.586Z,52.87
2023-02-27T12:50:31.552Z,53.08
2023-02-27T12:51:31.582Z,53.80
2023-02-27T12:52:31.573Z,53.80
2023-02-27T12:53:31.529Z,53.46